createdAt,value
2023-05-22T00:00:15.197Z,100942.78
2023-05-22T00:01:07.634Z,100945.41
2023-05-22T00:02:02.615Z,100945.41
2023-05-22T00:02:54.410Z,100948.91
2023-05-22T00:03:46.601Z,100945.41
2023-05-22T00:04:38.051Z,100948.91
2023-05-22T00:05:30.384Z,100947.16
2023-05-22T00:06:23.449Z,100937.53
2023-05-22T00:07:17.183Z,100941.91
2023-05-22T00:08:11.856Z,100939.22
2023-05-22T00:09:05.368Z,100945.34
2023-05-22T00:09:58.131Z,100938.34
2023-05-22T00:10:49.627Z,100940.97
2023-05-22T00:11:41.239Z,100936.59
2023-05-22T00:12:33.209Z,100935.72
2023-05-22T00:13:24.724Z,100933.97
2023-05-22T00:14:16.496Z,100939.22
2023-05-22T00:15:08.525Z,100937.47
2023-05-22T00:16:02.396Z,100932.19
2023-05-22T00:16:55.575Z,100934.84
2023-05-22T00:17:49.818Z,100932.19
2023-05-22T00:18:42.381Z,100929.56
2023-05-22T00:19:35.138Z,100925.19
2023-05-22T00:20:28.977Z,100933.94
2023-05-22T00:21:20.590Z,100925.19
2023-05-22T00:22:14.711Z,100924.28
2023-05-22T00:23:12.616Z,100933.94
2023-05-22T00:24:06.074Z,100933.91
2023-05-22T00:24:58.133Z,100928.69
2023-05-22T00:25:50.940Z,100927.81
2023-05-22T00:26:42.629Z,100933.91
2023-05-22T00:27:34.525Z,100927.81
2023-05-22T00:28:26.510Z,100927.78
2023-05-22T00:29:18.063Z,100931.28
2023-05-22T00:30:18.578Z,100929.56
2023-05-22T00:31:11.599Z,100927.78
2023-05-22T00:32:05.776Z,100925.16
2023-05-22T00:32:57.970Z,100928.66
2023-05-22T00:33:49.659Z,100926.03
2023-05-22T00:34:42.506Z,100924.28
2023-05-22T00:35:35.625Z,100919.91
2023-05-22T00:36:31.708Z,100925.16
2023-05-22T00:37:25.775Z,100928.66
2023-05-22T00:38:36.559Z,100919.94
2023-05-22T00:39:28.254Z,100921.66
2023-05-22T00:40:20.219Z,100921.66
2023-05-22T00:41:12.002Z,100921.66
2023-05-22T00:42:03.849Z,100919.91
2023-05-22T00:42:57.397Z,100921.66
2023-05-22T00:43:50.950Z,100916.38
2023-05-22T00:44:43.557Z,100919.88
2023-05-22T00:45:35.148Z,100916.38
2023-05-22T00:46:27.012Z,100918.13
2023-05-22T00:47:18.519Z,100914.63
2023-05-22T00:48:12.257Z,100912.88
2023-05-22T00:49:06.824Z,100921.63
2023-05-22T00:50:00.794Z,100923.38
2023-05-22T00:50:54.708Z,100917.22
2023-05-22T00:51:46.403Z,100916.38
2023-05-22T00:52:42.905Z,100918.09
2023-05-22T00:53:37.098Z,100917.22
2023-05-22T00:54:30.577Z,100913.72
2023-05-22T00:55:22.225Z,100923.34
2023-05-22T00:56:15.108Z,100918.97
2023-05-22T00:57:07.009Z,100915.47
2023-05-22T00:57:59.657Z,100920.72
2023-05-22T00:58:51.412Z,100921.59
2023-05-22T00:59:44.045Z,100916.34
2023-05-22T01:00:37.483Z,100915.47
2023-05-22T01:01:33.675Z,100918.97
2023-05-22T01:02:25.643Z,100918.09
2023-05-22T01:03:18.948Z,100916.34
2023-05-22T01:04:12.394Z,100920.72
2023-05-22T01:05:06.910Z,100917.22
2023-05-22T01:05:58.657Z,100917.22
2023-05-22T01:06:50.447Z,100918.09
2023-05-22T01:07:42.053Z,100920.72
2023-05-22T01:08:33.905Z,100918.06
2023-05-22T01:09:25.602Z,100912.81
2023-05-22T01:10:17.562Z,100918.06
2023-05-22T01:11:32.065Z,100911.97
2023-05-22T01:12:47.826Z,100915.47
2023-05-22T01:14:03.420Z,100917.22
2023-05-22T01:15:13.560Z,100922.47
2023-05-22T01:16:30.044Z,100918.97
2023-05-22T01:17:46.194Z,100920.72
2023-05-22T01:18:46.670Z,100925.97
2023-05-22T01:19:55.243Z,100922.50
2023-05-22T01:20:55.561Z,100922.47
2023-05-22T01:22:25.029Z,100922.47
2023-05-22T01:23:22.545Z,100919.84
2023-05-22T01:24:53.217Z,100931.25
2023-05-22T01:25:59.754Z,100929.47
2023-05-22T01:27:16.048Z,100926.00
2023-05-22T01:28:11.539Z,100924.28
2023-05-22T01:29:23.547Z,100926.88
2023-05-22T01:30:29.063Z,100928.63
2023-05-22T01:31:28.034Z,100930.38
2023-05-22T01:32:25.206Z,100928.63
2023-05-22T01:33:19.208Z,100921.63
2023-05-22T01:34:13.763Z,100926.00
2023-05-22T01:35:11.560Z,100926.88
2023-05-22T01:36:07.756Z,100930.34
2023-05-22T01:37:02.109Z,100931.22
2023-05-22T01:37:55.884Z,100924.25
2023-05-22T01:38:48.497Z,100933.84
2023-05-22T01:39:41.898Z,100932.09
2023-05-22T01:40:34.749Z,100931.22
2023-05-22T01:41:33.396Z,100935.56
2023-05-22T01:42:25.781Z,100935.56
2023-05-22T01:43:20.930Z,100937.28
2023-05-22T01:44:12.525Z,100939.94
2023-05-22T01:45:07.475Z,100942.53
2023-05-22T01:45:59.541Z,100936.38
2023-05-22T01:46:54.836Z,100935.50
2023-05-22T01:47:46.365Z,100932.88
2023-05-22T01:48:39.240Z,100931.13
2023-05-22T01:49:34.577Z,100929.44
2023-05-22T01:50:26.552Z,100929.44
2023-05-22T01:51:39.578Z,100930.28
2023-05-22T01:52:50.430Z,100934.63
2023-05-22T01:54:09.497Z,100924.13
2023-05-22T01:55:10.111Z,100934.59
2023-05-22T01:56:07.718Z,100929.34
2023-05-22T01:57:10.274Z,100926.72
2023-05-22T01:58:17.910Z,100926.72
2023-05-22T01:59:20.977Z,100928.47
2023-05-22T02:00:18.584Z,100924.97
2023-05-22T02:01:14.907Z,100925.84
2023-05-22T02:02:10.440Z,100922.34
2023-05-22T02:03:12.234Z,100921.47
2023-05-22T02:04:06.474Z,100924.13
2023-05-22T02:05:01.643Z,100919.75
2023-05-22T02:05:55.712Z,100927.63
2023-05-22T02:06:49.501Z,100918.84
2023-05-22T02:07:43.384Z,100915.34
2023-05-22T02:08:41.629Z,100922.28
2023-05-22T02:09:37.208Z,100916.16
2023-05-22T02:10:31.466Z,100917.88
2023-05-22T02:11:27.132Z,100915.22
2023-05-22T02:12:20.000Z,100916.97
2023-05-22T02:13:12.484Z,100914.34
2023-05-22T02:14:06.586Z,100913.47
2023-05-22T02:14:58.219Z,100916.06
2023-05-22T02:15:54.230Z,100914.34
2023-05-22T02:16:47.654Z,100921.34
2023-05-22T02:17:45.296Z,100912.59
2023-05-22T02:18:38.042Z,100916.06
2023-05-22T02:19:34.887Z,100921.28
2023-05-22T02:20:26.594Z,100916.03
2023-05-22T02:21:18.107Z,100916.88
2023-05-22T02:22:13.766Z,100919.50
2023-05-22T02:23:05.802Z,100917.72
2023-05-22T02:23:57.385Z,100921.25
2023-05-22T02:24:50.085Z,100917.72
2023-05-22T02:25:41.637Z,100916.88
2023-05-22T02:26:33.420Z,100919.50
2023-05-22T02:27:25.639Z,100915.13
2023-05-22T02:28:17.449Z,100911.59
2023-05-22T02:29:10.970Z,100916.84
2023-05-22T02:30:02.634Z,100914.22
2023-05-22T02:30:54.371Z,100909.84
2023-05-22T02:31:47.927Z,100920.38
2023-05-22T02:32:40.716Z,100912.63
2023-05-22T02:33:32.282Z,100917.91
2023-05-22T02:34:26.879Z,100916.22
2023-05-22T02:35:18.424Z,100911.81
2023-05-22T02:36:11.380Z,100916.13
2023-05-22T02:37:07.737Z,100910.88
2023-05-22T02:37:59.338Z,100911.72
2023-05-22T02:38:50.977Z,100907.34
2023-05-22T02:39:44.114Z,100909.88
2023-05-22T02:40:35.541Z,100909.97
2023-05-22T02:41:27.364Z,100910.81
2023-05-22T02:42:21.855Z,100906.38
2023-05-22T02:43:13.406Z,100904.63
2023-05-22T02:44:05.772Z,100911.59
2023-05-22T02:44:57.434Z,100910.72
2023-05-22T02:45:49.320Z,100905.44
2023-05-22T02:46:42.109Z,100911.56
2023-05-22T02:47:33.951Z,100914.16
2023-05-22T02:48:25.674Z,100912.41
2023-05-22T02:49:17.126Z,100911.53
2023-05-22T02:50:08.949Z,100914.97
2023-05-22T02:51:00.797Z,100910.59
2023-05-22T02:51:52.357Z,100905.38
2023-05-22T02:52:45.150Z,100907.97
2023-05-22T02:53:40.041Z,100907.06
2023-05-22T02:54:31.589Z,100900.94
2023-05-22T02:55:23.155Z,100907.06
2023-05-22T02:56:14.883Z,100904.44
2023-05-22T02:57:06.658Z,100905.31
2023-05-22T02:57:58.168Z,100895.69
2023-05-22T02:58:52.061Z,100902.66
2023-05-22T02:59:44.324Z,100893.94
2023-05-22T03:00:38.019Z,100898.31
2023-05-22T03:01:30.696Z,100900.91
2023-05-22T03:02:22.222Z,100902.66
2023-05-22T03:03:13.842Z,100895.66
2023-05-22T03:04:06.642Z,100890.41
2023-05-22T03:04:59.559Z,100894.78
2023-05-22T03:05:53.717Z,100896.56
2023-05-22T03:06:46.292Z,100893.06
2023-05-22T03:07:39.186Z,100895.69
2023-05-22T03:08:32.280Z,100888.66
2023-05-22T03:09:23.744Z,100886.03
2023-05-22T03:10:17.855Z,100890.34
2023-05-22T03:11:11.930Z,100885.97
2023-05-22T03:12:05.021Z,100891.19
2023-05-22T03:12:56.523Z,100885.94
2023-05-22T03:13:48.496Z,100893.78
2023-05-22T03:14:39.994Z,100895.50
2023-05-22T03:15:31.501Z,100892.91
2023-05-22T03:16:32.770Z,100893.75
2023-05-22T03:17:24.255Z,100890.22
2023-05-22T03:18:16.369Z,100891.13
2023-05-22T03:19:13.898Z,100887.63
2023-05-22T03:20:09.100Z,100890.22
2023-05-22T03:21:02.405Z,100888.47
2023-05-22T03:21:56.161Z,100891.97
2023-05-22T03:22:47.734Z,100887.56
2023-05-22T03:23:39.844Z,100890.19
2023-05-22T03:24:34.479Z,100884.91
2023-05-22T03:25:26.404Z,100884.91
2023-05-22T03:26:18.032Z,100889.28
2023-05-22T03:27:14.582Z,100891.00
2023-05-22T03:28:07.156Z,100892.75
2023-05-22T03:29:02.477Z,100885.75
2023-05-22T03:29:54.741Z,100893.63
2023-05-22T03:30:47.787Z,100894.50
2023-05-22T03:31:45.278Z,100896.25
2023-05-22T03:32:39.026Z,100892.75
2023-05-22T03:33:31.348Z,100892.75
2023-05-22T03:34:27.350Z,100893.63
2023-05-22T03:35:19.882Z,100895.38
2023-05-22T03:36:13.854Z,100898.84
2023-05-22T03:37:07.063Z,100892.72
2023-05-22T03:37:59.988Z,100898.84
2023-05-22T03:38:52.401Z,100898.81
2023-05-22T03:39:43.947Z,100898.81
2023-05-22T03:40:47.055Z,100900.56
2023-05-22T03:41:38.970Z,100900.56
2023-05-22T03:42:33.542Z,100908.41
2023-05-22T03:43:25.905Z,100909.44
2023-05-22T03:44:18.336Z,100911.22
2023-05-22T03:45:12.614Z,100913.84
2023-05-22T03:46:04.380Z,100918.19
2023-05-22T03:46:57.060Z,100912.03
2023-05-22T03:47:48.708Z,100920.75
2023-05-22T03:48:40.460Z,100915.50
2023-05-22T03:49:31.996Z,100915.47
2023-05-22T03:50:23.712Z,100914.66
2023-05-22T03:51:18.101Z,100911.19
2023-05-22T03:52:11.707Z,100910.34
2023-05-22T03:53:03.429Z,100908.63
2023-05-22T03:53:55.747Z,100906.91
2023-05-22T03:54:47.534Z,100909.53
2023-05-22T03:55:42.048Z,100907.78
2023-05-22T03:56:33.521Z,100908.59
2023-05-22T03:57:26.908Z,100910.38
2023-05-22T03:58:18.512Z,100908.59
2023-05-22T03:59:10.014Z,100904.22
2023-05-22T04:00:09.433Z,100907.72
2023-05-22T04:01:06.912Z,100906.03
2023-05-22T04:01:58.324Z,100914.72
2023-05-22T04:02:50.678Z,100912.94
2023-05-22T04:03:42.547Z,100913.78
2023-05-22T04:04:38.664Z,100905.91
2023-05-22T04:05:31.692Z,100916.38
2023-05-22T04:06:23.553Z,100910.25
2023-05-22T04:07:15.030Z,100911.97
2023-05-22T04:08:06.508Z,100911.97
2023-05-22T04:08:58.097Z,100911.09
2023-05-22T04:09:49.583Z,100915.47
2023-05-22T04:10:42.370Z,100918.13
2023-05-22T04:11:33.886Z,100916.38
2023-05-22T04:12:27.961Z,100922.53
2023-05-22T04:13:19.604Z,100926.88
2023-05-22T04:14:14.187Z,100928.63
2023-05-22T04:15:07.317Z,100930.38
2023-05-22T04:15:58.927Z,100932.13
2023-05-22T04:16:50.729Z,100931.25
2023-05-22T04:17:42.612Z,100934.75
2023-05-22T04:18:34.166Z,100929.50
2023-05-22T04:19:28.021Z,100933.84
2023-05-22T04:20:19.632Z,100932.13
2023-05-22T04:21:13.676Z,100940.00
2023-05-22T04:22:07.542Z,100936.53
2023-05-22T04:22:59.228Z,100941.78
2023-05-22T04:23:53.765Z,100940.91
2023-05-22T04:24:49.033Z,100946.16
2023-05-22T04:25:40.485Z,100933.09
2023-05-22T04:26:32.223Z,100947.06
2023-05-22T04:27:24.030Z,100939.22
2023-05-22T04:28:22.443Z,100949.69
2023-05-22T04:29:14.556Z,100949.69
2023-05-22T04:30:10.435Z,100946.22
2023-05-22T04:31:06.682Z,100945.38
2023-05-22T04:32:00.215Z,100947.13
2023-05-22T04:32:55.124Z,100943.63
2023-05-22T04:33:48.222Z,100945.38
2023-05-22T04:34:41.342Z,100943.59
2023-05-22T04:35:34.220Z,100944.53
2023-05-22T04:36:26.829Z,100946.31
2023-05-22T04:37:20.133Z,100943.69
2023-05-22T04:38:14.178Z,100941.94
2023-05-22T04:39:05.631Z,100950.69
2023-05-22T04:40:03.266Z,100947.22
2023-05-22T04:40:56.901Z,100951.59
2023-05-22T04:41:48.990Z,100947.25
2023-05-22T04:42:42.566Z,100942.00
2023-05-22T04:43:34.403Z,100943.78
2023-05-22T04:44:25.832Z,100946.41
2023-05-22T04:45:20.076Z,100942.06
2023-05-22T04:46:11.532Z,100949.94
2023-05-22T04:47:06.844Z,100949.94
2023-05-22T04:48:03.792Z,100949.97
2023-05-22T04:49:02.222Z,100948.25
2023-05-22T04:49:55.056Z,100951.78
2023-05-22T04:50:47.194Z,100946.56
2023-05-22T04:51:38.898Z,100946.66
2023-05-22T04:52:30.879Z,100949.28
2023-05-22T04:53:22.447Z,100954.56
2023-05-22T04:54:14.001Z,100941.47
2023-05-22T04:55:06.707Z,100947.63
2023-05-22T04:55:58.410Z,100950.25
2023-05-22T04:56:51.520Z,100945.91
2023-05-22T04:57:46.087Z,100951.19
2023-05-22T04:58:37.940Z,100946.84
2023-05-22T04:59:33.468Z,100952.97
2023-05-22T05:00:28.727Z,100951.22
2023-05-22T05:01:21.434Z,100947.75
2023-05-22T05:02:13.473Z,100945.19
2023-05-22T05:03:07.913Z,100946.94
2023-05-22T05:03:59.573Z,100953.09
2023-05-22T05:04:53.094Z,100946.09
2023-05-22T05:05:44.965Z,100949.59
2023-05-22T05:06:37.827Z,100952.25
2023-05-22T05:07:29.729Z,100947.91
2023-05-22T05:08:22.479Z,100946.13
2023-05-22T05:09:14.005Z,100947.03
2023-05-22T05:10:07.532Z,100951.41
2023-05-22T05:10:59.353Z,100947.91
2023-05-22T05:11:52.079Z,100947.91
2023-05-22T05:12:45.078Z,100947.91
2023-05-22T05:13:37.346Z,100954.97
2023-05-22T05:14:28.819Z,100953.19
2023-05-22T05:15:22.741Z,100953.22
2023-05-22T05:16:15.020Z,100954.09
2023-05-22T05:17:09.071Z,100954.09
2023-05-22T05:18:01.775Z,100947.16
2023-05-22T05:18:53.457Z,100948.03
2023-05-22T05:19:45.083Z,100956.81
2023-05-22T05:20:36.697Z,100948.91
2023-05-22T05:21:29.378Z,100948.03
2023-05-22T05:22:25.968Z,100954.19
2023-05-22T05:23:17.593Z,100952.44
2023-05-22T05:24:09.177Z,100945.41
2023-05-22T05:25:04.157Z,100954.19
2023-05-22T05:25:55.679Z,100948.94
2023-05-22T05:26:47.388Z,100959.44
2023-05-22T05:27:41.115Z,100954.19
2023-05-22T05:28:33.977Z,100952.44
2023-05-22T05:29:26.010Z,100955.03
2023-05-22T05:30:23.427Z,100952.44
2023-05-22T05:31:33.077Z,100956.81
2023-05-22T05:32:44.439Z,100963.81
2023-05-22T05:33:52.243Z,100956.81
2023-05-22T05:34:59.271Z,100955.03
2023-05-22T05:36:07.345Z,100961.19
2023-05-22T05:37:05.409Z,100957.66
2023-05-22T05:38:00.467Z,100964.69
2023-05-22T05:38:54.778Z,100968.19
2023-05-22T05:39:46.459Z,100964.69
2023-05-22T05:40:38.597Z,100966.44
2023-05-22T05:41:31.951Z,100962.97
2023-05-22T05:42:28.054Z,100969.94
2023-05-22T05:43:25.520Z,100967.31
2023-05-22T05:44:19.944Z,100966.47
2023-05-22T05:45:13.912Z,100972.59
2023-05-22T05:46:08.874Z,100967.31
2023-05-22T05:47:01.084Z,100973.44
2023-05-22T05:47:53.210Z,100970.81
2023-05-22T05:48:45.256Z,100971.69
2023-05-22T05:49:37.022Z,100975.22
2023-05-22T05:50:30.207Z,100969.94
2023-05-22T05:51:22.414Z,100975.19
2023-05-22T05:52:14.867Z,100981.31
2023-05-22T05:53:06.434Z,100979.56
2023-05-22T05:53:59.342Z,100981.31
2023-05-22T05:54:51.946Z,100977.78
2023-05-22T05:55:45.708Z,100977.78
2023-05-22T05:56:38.050Z,100979.53
2023-05-22T05:57:32.957Z,100980.41
2023-05-22T05:58:24.514Z,100978.66
2023-05-22T05:59:42.410Z,100976.91
2023-05-22T06:00:49.187Z,100986.56
2023-05-22T06:01:45.755Z,100983.91
2023-05-22T06:02:46.157Z,100979.53
2023-05-22T06:03:51.361Z,100993.56
2023-05-22T06:04:54.984Z,100983.91
2023-05-22T06:05:48.927Z,100992.69
2023-05-22T06:07:04.454Z,100988.31
2023-05-22T06:08:10.272Z,100987.41
2023-05-22T06:09:06.395Z,100982.16
2023-05-22T06:10:01.566Z,100987.41
2023-05-22T06:11:02.395Z,100991.78
2023-05-22T06:11:58.127Z,100992.66
2023-05-22T06:12:49.956Z,100994.44
2023-05-22T06:13:41.570Z,100992.69
2023-05-22T06:14:33.636Z,100991.78
2023-05-22T06:15:25.527Z,100987.41
2023-05-22T06:16:17.398Z,100990.88
2023-05-22T06:17:11.284Z,100989.97
2023-05-22T06:18:06.611Z,100993.44
2023-05-22T06:18:59.299Z,100984.69
2023-05-22T06:19:51.418Z,100995.28
2023-05-22T06:20:43.135Z,100997.06
2023-05-22T06:21:37.461Z,100991.78
2023-05-22T06:22:30.889Z,100991.78
2023-05-22T06:23:23.470Z,100993.53
2023-05-22T06:24:15.500Z,100990.88
2023-05-22T06:25:07.955Z,100991.75
2023-05-22T06:25:59.452Z,100997.00
2023-05-22T06:26:51.829Z,100988.22
2023-05-22T06:27:43.592Z,100996.19
2023-05-22T06:28:37.532Z,100997.03
2023-05-22T06:29:31.549Z,100990.03
2023-05-22T06:30:39.017Z,100997.91
2023-05-22T06:31:35.380Z,100991.78
2023-05-22T06:32:27.965Z,100994.41
2023-05-22T06:33:20.161Z,100993.53
2023-05-22T06:34:11.890Z,100991.78
2023-05-22T06:35:03.936Z,100999.69
2023-05-22T06:35:55.575Z,100998.81
2023-05-22T06:36:52.396Z,101001.47
2023-05-22T06:37:48.027Z,101004.09
2023-05-22T06:38:39.528Z,101004.97
2023-05-22T06:39:38.738Z,101000.53
2023-05-22T06:40:35.326Z,100996.97
2023-05-22T06:41:40.517Z,101002.19
2023-05-22T06:42:35.296Z,101003.94
2023-05-22T06:43:55.881Z,101003.97
2023-05-22T06:44:53.012Z,101009.25
2023-05-22T06:45:46.005Z,101005.75
2023-05-22T06:46:58.092Z,101007.50
2023-05-22T06:47:54.080Z,101016.22
2023-05-22T06:48:47.594Z,101013.53
2023-05-22T06:49:47.777Z,101018.78
2023-05-22T06:50:40.499Z,101014.44
2023-05-22T06:51:32.716Z,101014.44
2023-05-22T06:52:33.823Z,101023.22
2023-05-22T06:53:26.775Z,101010.94
2023-05-22T06:54:21.395Z,101016.19
2023-05-22T06:55:16.592Z,101017.13
2023-05-22T06:56:20.123Z,101020.59
2023-05-22T06:57:21.516Z,101019.72
2023-05-22T06:58:13.022Z,101019.69
2023-05-22T06:59:06.210Z,101019.72
2023-05-22T07:00:21.961Z,101027.56
2023-05-22T07:01:23.906Z,101024.13
2023-05-22T07:02:28.213Z,101026.72
2023-05-22T07:03:39.673Z,101024.97
2023-05-22T07:04:52.431Z,101021.47
2023-05-22T07:06:10.102Z,101027.59
2023-05-22T07:07:02.574Z,101026.72
2023-05-22T07:07:54.068Z,101022.31
2023-05-22T07:08:45.729Z,101027.66
2023-05-22T07:09:39.409Z,101029.44
2023-05-22T07:10:33.121Z,101024.16
2023-05-22T07:11:25.723Z,101028.56
2023-05-22T07:12:20.801Z,101030.31
2023-05-22T07:13:12.543Z,101031.16
2023-05-22T07:14:04.310Z,101035.56
2023-05-22T07:14:56.933Z,101022.41
2023-05-22T07:15:50.009Z,101026.78
2023-05-22T07:16:42.201Z,101024.19
2023-05-22T07:17:34.682Z,101024.16
2023-05-22T07:18:27.482Z,101022.41
2023-05-22T07:19:19.746Z,101025.06
2023-05-22T07:20:16.099Z,101028.53
2023-05-22T07:21:12.995Z,101032.06
2023-05-22T07:22:06.070Z,101027.66
2023-05-22T07:22:59.420Z,101036.44
2023-05-22T07:23:52.286Z,101032.94
2023-05-22T07:24:46.325Z,101027.63
2023-05-22T07:25:38.485Z,101032.88
2023-05-22T07:26:30.341Z,101025.84
2023-05-22T07:27:28.851Z,101025.81
2023-05-22T07:28:20.443Z,101030.16
2023-05-22T07:29:18.422Z,101028.44
2023-05-22T07:30:13.535Z,101026.69
2023-05-22T07:31:06.486Z,101026.69
2023-05-22T07:31:58.389Z,101030.22
2023-05-22T07:32:51.176Z,101030.25
2023-05-22T07:33:44.196Z,101028.53
2023-05-22T07:34:36.084Z,101032.94
2023-05-22T07:35:30.077Z,101035.56
2023-05-22T07:36:22.247Z,101040.78
2023-05-22T07:37:16.840Z,101029.41
2023-05-22T07:38:11.603Z,101040.81
2023-05-22T07:39:09.873Z,101035.53
2023-05-22T07:40:09.665Z,101036.47
2023-05-22T07:41:04.724Z,101043.50
2023-05-22T07:41:58.890Z,101043.50
2023-05-22T07:42:54.730Z,101039.09
2023-05-22T07:43:46.399Z,101039.97
2023-05-22T07:44:41.744Z,101048.72
2023-05-22T07:45:35.880Z,101044.34
2023-05-22T07:46:31.122Z,101046.09
2023-05-22T07:47:33.602Z,101042.56
2023-05-22T07:48:28.917Z,101046.91
2023-05-22T07:49:22.259Z,101046.91
2023-05-22T07:50:14.991Z,101046.03
2023-05-22T07:51:09.647Z,101048.63
2023-05-22T07:52:01.270Z,101046.94
2023-05-22T07:52:53.615Z,101048.66
2023-05-22T07:53:45.126Z,101043.34
2023-05-22T07:54:38.091Z,101051.19
2023-05-22T07:55:31.445Z,101052.09
2023-05-22T07:56:25.760Z,101051.16
2023-05-22T07:57:21.215Z,101047.66
2023-05-22T07:58:13.924Z,101055.56
2023-05-22T07:59:09.146Z,101052.09
2023-05-22T08:00:00.643Z,101061.72
2023-05-22T08:00:52.459Z,101055.53
2023-05-22T08:01:44.208Z,101050.22
2023-05-22T08:02:36.584Z,101053.75
2023-05-22T08:03:28.502Z,101058.09
2023-05-22T08:04:20.265Z,101059.00
2023-05-22T08:05:12.091Z,101052.81
2023-05-22T08:06:04.585Z,101055.44
2023-05-22T08:06:57.239Z,101053.72
2023-05-22T08:07:48.887Z,101058.13
2023-05-22T08:08:40.583Z,101057.25
2023-05-22T08:09:32.115Z,101053.75
2023-05-22T08:10:23.590Z,101055.47
2023-05-22T08:11:15.070Z,101054.56
2023-05-22T08:12:07.682Z,101055.41
2023-05-22T08:13:02.305Z,101059.81
2023-05-22T08:13:54.195Z,101057.22
2023-05-22T08:14:45.689Z,101054.59
2023-05-22T08:15:37.504Z,101051.94
2023-05-22T08:16:32.582Z,101049.34
2023-05-22T08:17:24.250Z,101059.00
2023-05-22T08:18:15.897Z,101059.06
2023-05-22T08:19:07.920Z,101059.97
2023-05-22T08:20:05.459Z,101056.47
2023-05-22T08:20:57.446Z,101060.81
2023-05-22T08:21:48.985Z,101060.81
2023-05-22T08:22:42.673Z,101059.03
2023-05-22T08:23:36.207Z,101054.59
2023-05-22T08:24:28.675Z,101055.47
2023-05-22T08:25:22.209Z,101053.81
2023-05-22T08:26:14.899Z,101051.13
2023-05-22T08:27:06.680Z,101060.81
2023-05-22T08:27:58.459Z,101049.34
2023-05-22T08:28:49.949Z,101055.50
2023-05-22T08:29:43.882Z,101058.09
2023-05-22T08:30:37.389Z,101059.72
2023-05-22T08:31:29.273Z,101060.59
2023-05-22T08:32:20.857Z,101060.66
2023-05-22T08:33:12.722Z,101057.94
2023-05-22T08:34:04.991Z,101058.75
2023-05-22T08:34:56.800Z,101058.78
2023-05-22T08:35:51.078Z,101057.00
2023-05-22T08:36:42.602Z,101062.28
2023-05-22T08:37:34.178Z,101060.56
2023-05-22T08:38:26.049Z,101054.38
2023-05-22T08:39:18.938Z,101055.25
2023-05-22T08:40:15.124Z,101061.41
2023-05-22T08:41:08.649Z,101061.44
2023-05-22T08:42:00.431Z,101063.22
2023-05-22T08:42:57.414Z,101072.06
2023-05-22T08:43:49.098Z,101063.31
2023-05-22T08:44:42.793Z,101056.25
2023-05-22T08:45:36.988Z,101058.69
2023-05-22T08:46:30.154Z,101064.78
2023-05-22T08:47:25.996Z,101065.69
2023-05-22T08:48:22.102Z,101061.31
2023-05-22T08:49:13.777Z,101063.03
2023-05-22T08:50:09.181Z,101059.34
2023-05-22T08:51:05.758Z,101062.81
2023-05-22T08:52:06.102Z,101061.09
2023-05-22T08:53:02.456Z,101063.81
2023-05-22T08:53:59.278Z,101066.53
2023-05-22T08:54:54.500Z,101066.69
2023-05-22T08:55:46.378Z,101067.56
2023-05-22T08:56:45.363Z,101068.41
2023-05-22T08:57:45.962Z,101065.75
2023-05-22T08:58:38.566Z,101063.16
2023-05-22T08:59:31.084Z,101064.78
2023-05-22T09:00:23.160Z,101061.31
2023-05-22T09:01:16.795Z,101063.91
2023-05-22T09:02:12.559Z,101066.59
2023-05-22T09:03:10.238Z,101071.84
2023-05-22T09:04:03.037Z,101071.72
2023-05-22T09:04:54.569Z,101064.63
2023-05-22T09:05:46.026Z,101065.47
2023-05-22T09:06:39.890Z,101061.97
2023-05-22T09:07:31.373Z,101068.13
2023-05-22T09:08:24.054Z,101065.50
2023-05-22T09:09:15.727Z,101074.19
2023-05-22T09:10:07.928Z,101073.22
2023-05-22T09:10:59.785Z,101067.09
2023-05-22T09:11:55.129Z,101070.72
2023-05-22T09:13:11.533Z,101069.84
2023-05-22T09:14:10.071Z,101065.50
2023-05-22T09:15:13.585Z,101065.53
2023-05-22T09:16:10.466Z,101066.41
2023-05-22T09:17:02.717Z,101072.63
2023-05-22T09:17:54.324Z,101072.50
2023-05-22T09:18:46.314Z,101070.75
2023-05-22T09:19:39.048Z,101068.91
2023-05-22T09:20:34.694Z,101067.88
2023-05-22T09:21:30.681Z,101065.22
2023-05-22T09:22:24.307Z,101072.34
2023-05-22T09:23:24.576Z,101064.47
2023-05-22T09:24:16.187Z,101070.59
2023-05-22T09:25:17.797Z,101071.50
2023-05-22T09:26:11.180Z,101072.31
2023-05-22T09:27:07.075Z,101074.97
2023-05-22T09:27:58.626Z,101068.81
2023-05-22T09:28:50.157Z,101076.63
2023-05-22T09:29:53.207Z,101077.53
2023-05-22T09:30:48.829Z,101070.44
2023-05-22T09:31:45.123Z,101075.66
2023-05-22T09:32:38.921Z,101069.56
2023-05-22T09:33:33.175Z,101073.13
2023-05-22T09:34:29.032Z,101072.25
2023-05-22T09:35:20.848Z,101071.44
2023-05-22T09:36:12.482Z,101069.03
2023-05-22T09:37:05.587Z,101072.63
2023-05-22T09:37:58.782Z,101069.16
2023-05-22T09:38:54.091Z,101074.38
2023-05-22T09:39:50.332Z,101071.59
2023-05-22T09:40:42.331Z,101072.50
2023-05-22T09:41:36.573Z,101073.44
2023-05-22T09:42:28.272Z,101072.50
2023-05-22T09:43:21.620Z,101074.31
2023-05-22T09:44:14.486Z,101072.38
2023-05-22T09:45:07.921Z,101074.97
2023-05-22T09:46:06.749Z,101074.97
2023-05-22T09:46:58.299Z,101070.63
2023-05-22T09:47:52.090Z,101078.50
2023-05-22T09:48:43.971Z,101077.56
2023-05-22T09:49:43.246Z,101077.66
2023-05-22T09:50:36.190Z,101084.72
2023-05-22T09:51:28.311Z,101078.59
2023-05-22T09:52:21.896Z,101083.91
2023-05-22T09:53:18.679Z,101080.44
2023-05-22T09:54:12.292Z,101080.53
2023-05-22T09:55:06.925Z,101081.28
2023-05-22T09:56:00.458Z,101078.63
2023-05-22T09:56:58.823Z,101089.97
2023-05-22T09:57:55.613Z,101084.66
2023-05-22T09:58:47.873Z,101089.97
2023-05-22T09:59:44.133Z,101080.22
2023-05-22T10:00:36.820Z,101086.31
2023-05-22T10:01:28.903Z,101080.94
2023-05-22T10:02:22.830Z,101087.94
2023-05-22T10:03:17.911Z,101087.88
2023-05-22T10:04:14.069Z,101085.16
2023-05-22T10:05:09.465Z,101085.13
2023-05-22T10:06:02.810Z,101095.75
2023-05-22T10:06:57.821Z,101085.34
2023-05-22T10:07:52.013Z,101086.22
2023-05-22T10:08:51.043Z,101084.44
2023-05-22T10:09:52.614Z,101088.84
2023-05-22T10:10:51.715Z,101083.69
2023-05-22T10:11:46.121Z,101086.34
2023-05-22T10:12:52.310Z,101086.16
2023-05-22T10:13:48.142Z,101093.06
2023-05-22T10:14:42.176Z,101085.94
2023-05-22T10:15:36.927Z,101085.06
2023-05-22T10:16:30.238Z,101085.78
2023-05-22T10:17:24.278Z,101082.34
2023-05-22T10:18:17.415Z,101084.28
2023-05-22T10:19:11.077Z,101084.31
2023-05-22T10:20:05.352Z,101081.53
2023-05-22T10:20:57.866Z,101084.03
2023-05-22T10:21:52.867Z,101087.53
2023-05-22T10:22:47.324Z,101088.41
2023-05-22T10:23:39.616Z,101087.50
2023-05-22T10:24:32.028Z,101091.03